Latest Weather Observations for Edinburgh

IDS60801

Issued at 1:02 am CST Monday 20 April 2015 (issued every 30 minutes, with the page automatically refreshed every 10 minutes)

About weather observations | Map of weather stations | Latest weather observations for SA | Other Formats
Station Details ID: 023083 Name: EDINBURGH RAAF Lat: -34.71 Lon: 138.62 Height: 16.54 m
Data from the previous 72 hours. | See also: Recent months at Edinburgh
Date/Time
CST
Temp
°C
App
Temp
°C
Dew
Point
Rel
Hum
%
Delta-T
°C
Wind Press
QNH
hPa
Press
MSL
hPa
Rain
since 9 am
mm
Dir
 
Spd
km/h
Gust
km/h
Spd
kts
Gust
kts
20/01:00am 9.3 6.0 2.6 63 2.8 ESE 9 13 5 7 1037.6 1037.6 0.2
20/12:30am 9.3 6.7 3.3 66 2.6 SE 6 9 3 5 1037.6 1037.6 0.2
20/12:00am 9.6 7.1 3.8 67 2.5 ESE 6 9 3 5 1037.5 1037.5 0.2
 
Date/Time
CST
Temp
°C
App
Temp
°C
Dew
Point
Rel
Hum
%
Delta-T
°C
Wind Press
QNH
hPa
Press
MSL
hPa
Rain
since 9 am
mm
Dir
 
Spd
km/h
Gust
km/h
Spd
kts
Gust
kts
19/11:30pm 10.0 7.0 4.2 67 2.5 SE 9 15 5 8 1037.6 1037.6 0.2
19/11:00pm 10.1 7.5 4.3 67 2.6 SSE 7 11 4 6 1037.7 1037.7 0.2
19/10:30pm 10.4 7.1 4.5 67 2.6 SSE 11 17 6 9 1037.5 1037.5 0.2
19/10:00pm 10.4 7.5 4.8 68 2.5 SSE 9 13 5 7 1037.5 1037.5 0.2
19/09:30pm 8.4 7.2 4.6 77 1.7 CALM 0 6 0 3 1037.2 1037.2 0.2
19/09:00pm 8.7 6.4 4.9 77 1.7 SSW 6 7 3 4 1037.0 1037.0 0.2
19/08:30pm 10.0 8.3 4.2 67 2.5 S 2 7 1 4 1036.6 1036.6 0.2
19/08:00pm 11.4 8.8 4.4 62 3.2 S 7 11 4 6 1036.3 1036.3 0.2
19/07:30pm 12.0 8.6 4.2 59 3.5 SSE 11 17 6 9 1035.9 1035.9 0.2
19/07:00pm 12.3 8.6 4.5 59 3.5 SSE 13 20 7 11 1035.6 1035.6 0.2
19/06:30pm 12.5 9.2 4.5 58 3.6 SSE 11 19 6 10 1035.2 1035.2 0.2
19/06:00pm 13.0 9.3 4.4 56 3.9 SSE 13 20 7 11 1034.8 1034.8 0.2
19/05:30pm 13.9 9.3 3.7 50 4.6 SSE 17 30 9 16 1034.2 1034.2 0.2
19/05:00pm 14.6 9.0 1.2 40 5.8 SSE 20 33 11 18 1033.9 1033.9 0.2
19/04:30pm 14.6 8.7 1.8 42 5.5 SSE 22 33 12 18 1033.7 1033.7 0.2
19/04:00pm 15.5 10.2 1.6 39 6.1 SSE 19 28 10 15 1033.5 1033.5 0.2
19/03:30pm 15.8 10.7 2.9 42 5.8 SE 19 33 10 18 1033.3 1033.3 0.2
19/03:00pm 16.2 11.5 3.3 42 5.8 SSE 17 22 9 12 1033.2 1033.2 0.2
19/02:30pm 15.1 9.5 3.3 45 5.3 SE 22 32 12 17 1032.9 1032.9 0.2
19/02:00pm 15.7 11.4 5.3 50 4.9 SE 17 24 9 13 1032.9 1032.9 0.2
19/01:30pm 14.3 9.5 5.4 55 4.2 SSE 20 30 11 16 1033.1 1033.1 0.2
19/01:00pm 15.3 10.9 4.9 50 4.9 ESE 17 26 9 14 1033.0 1033.0 0.2
19/12:30pm 14.0 9.8 5.9 58 3.8 ESE 17 22 9 12 1033.4 1033.4 0.2
19/12:00pm 13.7 9.3 6.6 62 3.4 SE 19 26 10 14 1033.7 1033.7 0.2
19/11:30am 12.7 9.7 7.6 71 2.5 SE 13 22 7 12 1033.8 1033.8 0.2
19/11:00am 14.5 10.6 5.3 54 4.3 SSE 15 22 8 12 1033.4 1033.4 0.0
19/10:30am 14.1 8.7 4.7 53 4.3 SE 22 32 12 17 1033.1 1033.1 0.0
19/10:00am 14.1 8.7 4.7 53 4.4 SSE 22 32 12 17 1033.1 1033.1 0.0
19/09:30am 13.7 10.2 7.0 64 3.2 S 15 26 8 14 1033.1 1033.1 0.0
19/09:00am 12.4 9.1 6.5 67 2.8 SSW 13 15 7 8 1032.7 1032.7 3.0
19/08:30am 11.0 10.4 7.3 78 1.8 CALM 0 0 0 0 1032.2 1032.2 3.0
19/08:00am 9.6 8.7 6.1 79 1.6 CALM 0 2 0 1 1031.5 1031.5 3.0
19/07:30am 7.9 5.9 6.2 89 0.8 NE 6 9 3 5 1030.7 1030.7 3.0
19/07:00am 6.6 4.7 5.1 90 0.7 NW 4 6 2 3 1030.1 1030.1 3.0
19/06:30am 6.5 5.4 5.0 90 0.7 CALM 0 0 0 0 1029.5 1029.5 3.0
19/06:00am 6.7 5.6 5.2 90 0.7 CALM 0 0 0 0 1029.1 1029.1 3.0
19/05:30am 7.2 6.2 5.5 89 0.8 CALM 0 0 0 0 1028.5 1028.5 3.0
19/05:00am 7.4 6.4 5.7 89 0.8 CALM 0 0 0 0 1028.0 1028.0 3.0
19/04:30am 8.0 6.0 4.4 78 1.6 SSE 4 7 2 4 1027.5 1027.5 3.0
19/04:00am 9.7 7.4 5.9 77 1.7 SE 7 11 4 6 1027.0 1027.0 2.8
19/03:30am 9.8 7.8 6.2 78 1.7 S 6 7 3 4 1026.7 1026.7 2.8
19/03:00am 9.8 7.7 5.8 76 1.8 S 6 9 3 5 1026.6 1026.6 2.8
19/02:30am 10.5 8.3 6.3 75 1.9 SSE 7 9 4 5 1026.3 1026.3 2.8
19/02:00am 10.6 8.5 6.6 76 1.9 SE 7 11 4 6 1026.3 1026.3 2.8
19/01:30am 11.1 9.0 6.5 73 2.2 S 7 11 4 6 1026.1 1026.1 2.8
19/01:00am 11.5 8.3 6.8 73 2.2 S 13 17 7 9 1025.8 1025.7 2.8
19/12:30am 11.6 9.3 7.3 75 2.1 S 9 13 5 7 1025.6 1025.5 2.8
19/12:00am 11.7 9.4 7.4 75 2.1 SSE 9 13 5 7 1025.2 1025.1 2.8
 
Date/Time
CST
Temp
°C
App
Temp
°C
Dew
Point
Rel
Hum
%
Delta-T
°C
Wind Press
QNH
hPa
Press
MSL
hPa
Rain
since 9 am
mm
Dir
 
Spd
km/h
Gust
km/h
Spd
kts
Gust
kts
18/11:30pm 11.7 9.8 7.6 76 2.0 S 7 11 4 6 1025.0 1024.9 2.8
18/11:00pm 12.1 9.5 7.8 75 2.1 S 11 17 6 9 1024.9 1024.8 2.8
18/10:30pm 12.7 9.4 8.0 73 2.3 S 15 20 8 11 1024.7 1024.6 2.8
18/10:00pm 13.3 10.5 8.6 73 2.4 S 13 19 7 10 1024.2 1024.1 2.8
18/09:30pm 13.3 10.2 8.8 74 2.3 S 15 22 8 12 1023.7 1023.6 2.8
18/09:00pm 13.2 10.6 9.3 77 2.0 S 13 20 7 11 1023.1 1023.0 2.8
18/08:30pm 13.4 10.7 9.1 75 2.2 S 13 17 7 9 1022.5 1022.4 2.8
18/08:00pm 13.7 11.5 9.4 75 2.2 S 11 20 6 11 1022.0 1021.9 2.8
18/07:30pm 13.7 11.2 9.6 76 2.1 S 13 17 7 9 1021.5 1021.4 2.8
18/07:00pm 13.4 10.2 10.0 80 1.8 S 17 20 9 11 1020.9 1020.8 2.8
18/06:30pm 13.1 10.3 11.5 90 0.8 S 17 22 9 12 1020.1 1020.0 2.8
18/06:27pm 13.1 10.4 11.7 91 0.7 S 17 22 9 12 1020.1 1020.0 2.8
18/06:00pm 13.4 10.1 11.6 89 1.0 S 20 30 11 16 1019.8 1019.7 2.8
18/05:43pm 13.5 10.5 12.1 91 0.8 SSW 19 26 10 14 1019.5 1019.4 2.6
18/05:37pm 13.5 10.4 12.1 91 0.8 SSW 20 28 11 15 1019.2 1019.1 2.6
18/05:30pm 13.3 7.8 11.9 91 0.7 SSW 32 46 17 25 1019.1 1019.0 2.6
18/05:22pm 13.5 7.8 11.7 89 1.0 SSW 33 48 18 26 1019.1 1019.0 2.2
18/05:19pm 13.7 8.6 11.9 89 1.0 SSW 30 48 16 26 1019.0 1018.9 2.2
18/05:18pm 13.9 9.2 12.1 89 1.0 SSW 28 41 15 22 1019.0 1018.9 2.2
18/05:00pm 13.8 7.8 12.2 90 0.9 S 35 48 19 26 1018.5 1018.4 2.2
18/04:30pm 14.9 9.3 13.4 91 0.8 SSW 35 50 19 27 1017.7 1017.6 2.0
18/04:14pm 15.1 11.4 13.8 92 0.7 SW 26 33 14 18 1017.4 1017.3 1.8
18/04:12pm 15.2 11.1 13.9 92 0.7 SW 28 46 15 25 1017.3 1017.2 1.8
18/04:00pm 15.5 10.6 13.7 89 1.0 SW 32 46 17 25 1017.1 1017.0 0.8
18/03:55pm 16.2 10.9 13.1 82 1.7 W 33 46 18 25 1017.1 1017.0 0.0
18/03:30pm 18.6 13.5 13.2 71 3.0 WNW 32 41 17 22 1016.7 1016.6 0.0
18/03:00pm 19.2 14.0 12.9 67 3.5 WNW 32 44 17 24 1016.7 1016.6 0.0
18/02:30pm 18.7 13.3 12.7 68 3.4 W 33 41 18 22 1016.7 1016.6 0.0
18/02:00pm 19.4 13.8 13.3 68 3.5 W 35 44 19 24 1016.9 1016.8 0.0
18/01:30pm 18.8 13.8 13.4 71 3.1 WNW 32 39 17 21 1017.3 1017.2 0.0
18/01:00pm 18.8 14.8 14.1 74 2.7 WNW 28 37 15 20 1017.6 1017.5 0.0
18/12:30pm 17.2 12.0 12.9 76 2.4 W 32 39 17 21 1018.0 1017.9 0.0
18/12:00pm 17.2 13.2 12.9 76 2.4 WNW 26 35 14 19 1018.4 1018.3 0.0
18/11:30am 16.4 11.2 12.8 79 2.0 WNW 32 39 17 21 1018.7 1018.6 0.0
18/11:00am 17.2 14.1 12.3 73 2.7 WNW 20 26 11 14 1018.8 1018.7 0.0
18/10:59am 17.1 14.0 12.2 73 2.7 WNW 20 24 11 13 1018.8 1018.7 0.0
18/10:48am 15.6 10.5 12.0 79 2.0 WNW 30 43 16 23 1018.9 1018.8 0.0
18/10:30am 16.9 11.7 11.6 71 2.9 WNW 30 37 16 20 1018.8 1018.7 0.0
18/10:00am 16.9 13.2 11.4 70 3.0 WNW 22 32 12 17 1018.8 1018.7 0.0
18/09:30am 16.8 12.7 11.5 71 2.9 WNW 24 33 13 18 1018.8 1018.7 0.0
18/09:00am 15.9 12.5 11.1 73 2.6 NW 20 24 11 13 1018.8 1018.7 0.6
18/08:30am 15.7 13.3 11.5 76 2.3 NW 15 20 8 11 1018.7 1018.6 0.6
18/08:00am 14.4 12.9 10.6 78 2.0 NW 9 13 5 7 1018.3 1018.2 0.6
18/07:30am 13.0 11.9 10.7 86 1.2 NW 7 9 4 5 1018.0 1017.9 0.6
18/07:00am 11.7 9.9 9.4 86 1.2 WNW 9 11 5 6 1017.8 1017.7 0.6
18/06:30am 11.9 9.6 8.9 82 1.5 W 11 13 6 7 1017.5 1017.4 0.6
18/06:00am 13.0 10.1 9.8 81 1.6 W 15 17 8 9 1017.0 1016.9 0.6
18/05:30am 14.0 12.8 11.7 86 1.2 NW 9 17 5 9 1016.9 1016.8 0.6
18/05:00am 14.1 13.6 12.8 92 0.7 NNW 7 11 4 6 1016.7 1016.6 0.6
18/04:30am 14.1 13.3 13.0 93 0.6 NNW 9 11 5 6 1016.4 1016.3 0.6
18/04:00am 14.0 13.2 12.9 93 0.6 N 9 9 5 5 1016.4 1016.3 0.4
18/03:40am 14.0 13.2 12.9 93 0.6 NNW 9 11 5 6 1016.3 1016.2 0.4
18/03:30am 14.1 13.7 13.0 93 0.6 NNW 7 9 4 5 1016.3 1016.2 0.4
18/03:26am 14.0 13.6 12.9 93 0.6 N 7 9 4 5 1016.4 1016.3 0.4
18/03:00am 13.9 13.6 12.8 93 0.6 NNW 6 7 3 4 1016.2 1016.1 0.4
18/02:30am 13.9 13.4 12.8 93 0.6 NW 7 9 4 5 1016.5 1016.4 0.4
18/02:00am 13.8 13.3 12.7 93 0.6 WNW 7 9 4 5 1016.7 1016.6 0.4
18/01:30am 13.8 14.3 12.7 93 0.6 NNW 2 7 1 4 1016.6 1016.5 0.4
18/01:00am 13.8 14.6 12.7 93 0.6 CALM 0 0 0 0 1016.8 1016.7 0.4
18/12:30am 13.8 14.3 12.7 93 0.6 NNE 2 7 1 4 1016.9 1016.8 0.4
18/12:00am 13.7 14.5 12.6 93 0.6 CALM 0 0 0 0 1017.1 1017.0 0.4
 
Date/Time
CST
Temp
°C
App
Temp
°C
Dew
Point
Rel
Hum
%
Delta-T
°C
Wind Press
QNH
hPa
Press
MSL
hPa
Rain
since 9 am
mm
Dir
 
Spd
km/h
Gust
km/h
Spd
kts
Gust
kts
17/11:30pm 13.5 14.3 12.4 93 0.6 CALM 0 0 0 0 1017.1 1017.0 0.4
17/11:00pm 13.5 14.3 12.4 93 0.6 CALM 0 0 0 0 1017.3 1017.2 0.4
17/10:30pm 13.1 13.3 11.8 92 0.7 N 2 6 1 3 1017.4 1017.3 0.4
17/10:00pm 13.2 12.7 11.9 92 0.7 NNW 6 7 3 4 1017.4 1017.3 0.4
17/09:30pm 13.9 13.6 12.6 92 0.7 NE 6 7 3 4 1017.3 1017.2 0.4
17/09:00pm 14.0 14.5 12.7 92 0.7 SSW 2 6 1 3 1017.3 1017.2 0.4
17/08:30pm 14.0 12.8 12.7 92 0.7 SSW 11 15 6 8 1017.2 1017.1 0.4
17/08:00pm 14.1 12.7 12.3 89 1.0 SSW 11 13 6 7 1017.0 1016.9 0.2
17/07:30pm 14.3 13.3 12.2 87 1.1 S 9 11 5 6 1017.0 1016.9 0.2
17/07:00pm 14.9 13.3 11.7 81 1.7 S 11 17 6 9 1016.7 1016.6 0.2
17/06:30pm 14.9 14.2 11.9 82 1.6 SSE 7 9 4 5 1016.3 1016.2 0.2
17/06:00pm 15.1 13.7 12.1 82 1.6 SSE 11 15 6 8 1016.0 1015.9 0.2
17/05:30pm 15.8 14.7 11.8 77 2.2 SE 9 13 5 7 1015.6 1015.5 0.2
17/05:00pm 15.7 14.6 12.1 79 2.0 SSE 9 13 5 7 1015.5 1015.4 0.2
17/04:31pm 15.4 14.5 12.7 84 1.5 SSE 9 13 5 7 1015.5 1015.4 0.2
17/04:30pm 15.3 14.3 12.4 83 1.6 SSE 9 13 5 7 1015.5 1015.4 0.2
17/04:01pm 15.3 15.5 13.0 86 1.3 SE 4 9 2 5 1015.6 1015.5 0.2
17/04:00pm 15.2 15.4 13.1 87 1.2 SE 4 9 2 5 1015.6 1015.5 0.2
17/03:30pm 15.5 15.0 12.8 84 1.5 SE 7 9 4 5 1015.7 1015.6 0.2
17/03:19pm 15.5 14.5 12.3 81 1.7 SE 9 11 5 6 1015.7 1015.6 0.2
17/03:00pm 16.5 15.9 11.6 73 2.7 ESE 6 9 3 5 1015.8 1015.7 0.2
17/02:30pm 16.7 15.6 11.8 73 2.7 S 9 11 5 6 1015.8 1015.7 0.2
17/02:00pm 16.7 16.0 12.0 74 2.6 SSE 7 11 4 6 1015.9 1015.8 0.2
17/01:30pm 16.7 15.6 11.8 73 2.7 ESE 9 15 5 8 1016.4 1016.3 0.2
17/01:00pm 16.4 15.1 12.4 77 2.2 ESE 11 17 6 9 1016.9 1016.8 0.2
17/12:30pm 15.8 14.0 12.0 78 2.1 E 13 20 7 11 1017.6 1017.5 0.2
17/12:00pm 15.7 13.8 11.7 77 2.2 E 13 20 7 11 1018.2 1018.1 0.2
17/11:30am 15.4 13.2 12.0 80 1.8 E 15 22 8 12 1018.8 1018.7 0.2
17/11:26am 15.6 13.5 12.4 81 1.8 ENE 15 22 8 12 1018.8 1018.7 0.2
17/11:02am 15.2 13.4 12.0 81 1.7 E 13 19 7 10 1019.2 1019.1 0.0
17/11:00am 15.2 13.4 12.0 81 1.7 E 13 19 7 10 1019.3 1019.2 0.0
17/10:30am 15.3 14.0 11.3 77 2.1 SE 9 15 5 8 1019.4 1019.3 0.0
17/10:00am 14.7 13.1 11.5 81 1.7 SSE 11 13 6 7 1019.8 1019.7 0.0
17/09:30am 14.2 12.6 11.5 84 1.4 SSW 11 15 6 8 1020.3 1020.2 0.0
17/09:00am 13.9 12.6 11.4 85 1.3 SSE 9 11 5 6 1020.5 1020.4 12.2
17/08:30am 13.7 12.3 10.9 83 1.5 E 9 15 5 8 1020.8 1020.7 12.2
17/08:00am 13.9 12.6 11.1 83 1.5 ENE 9 13 5 7 1020.8 1020.7 12.2
17/07:30am 13.8 11.6 10.8 82 1.6 E 13 15 7 8 1020.6 1020.5 12.2
17/07:00am 13.5 13.5 11.0 85 1.3 W 2 7 1 4 1020.3 1020.2 12.2
17/06:30am 13.4 12.5 11.5 88 1.0 SW 7 9 4 5 1020.0 1019.9 12.2
17/06:00am 13.4 12.7 12.0 91 0.7 S 7 17 4 9 1019.7 1019.6 12.2
17/05:30am 13.2 11.3 11.8 91 0.7 SE 13 22 7 12 1020.0 1019.9 12.2
17/05:00am 13.3 12.6 12.0 92 0.7 S 7 11 4 6 1020.9 1020.8 11.8
17/04:30am 13.4 12.7 12.1 92 0.7 S 7 11 4 6 1020.7 1020.6 11.4
17/04:00am 13.4 12.3 12.1 92 0.7 SSE 9 11 5 6 1020.6 1020.5 11.0
17/03:30am 13.5 12.4 12.1 91 0.8 SSE 9 11 5 6 1020.8 1020.7 10.6
17/03:00am 13.6 12.8 11.8 89 1.0 SSE 7 9 4 5 1021.5 1021.4 9.4
17/02:30am 14.0 14.2 12.0 88 1.1 S 2 7 1 4 1021.9 1021.8 8.4
17/02:00am 14.1 13.7 12.3 89 1.0 S 6 7 3 4 1021.8 1021.7 8.0
17/01:30am 14.3 14.7 12.5 89 1.0 SE 2 6 1 3 1022.0 1021.9 7.8

Other Formats:

Comma delimited format used in spreadsheet applications
http://www.bom.gov.au/fwo/IDS60801/IDS60801.95676.axf

JavaScript Object Notation format (JSON) in row-major order
http://www.bom.gov.au/fwo/IDS60801/IDS60801.95676.json